Mesa, CO

2:56 AM MDT on September 17, 2014 (GMT -0600)
Rapid Creek Road | Change Station
CLOSE
Current Station
Personal Weather Station
Location: Palisade, CO
Elevation: 4980 ft
Nearby Weather Stations

Elev 4980 ft 39.13 °N, 108.32 °W | Updated 37 seconds ago

Clear
Clear
62.5 °F
Feels Like 62.5 °F
N
6.0
Wind Variable Wind from ESE
Gusts 10.0 mph

Today
High -- | Low -- °F
--% Chance of Precip.
Yesterday
High -- | Low -- °F
Precip. -- in
6:56 AM 7:17 PM
Last Quarter, 38% visible
Pressure 29.88 in
Visibility 10.0 miles
Clouds Clear
Dew Point 44 °F
Humidity 50%
Rainfall 0.00 in
Snow Depth Not available.
UV 0 out of 12
Pollen 5.50 out of 12
Air Quality Not available.
Flu Activity Not available.
METAR KGJT 170753Z AUTO 15006KT 10SM CLR 16/06 A3008 RMK AO2 SLP119 T01560056

More Conditions Fewer Conditions

Pressure 29.88 in
Visibility 10.0 miles
Clouds Clear
Dew Point 44 °F
Humidity 50%
Rainfall 0.00 in
Snow Depth Not available.
UV 0 out of 12
Pollen 5.50 out of 12
Air Quality Not available.
Flu Activity Not available.
METAR KGJT 170753Z AUTO 15006KT 10SM CLR 16/06 A3008 RMK AO2 SLP119 T01560056

More Conditions Fewer Conditions

10-Day Weather Forecast

Almanac

Astronomy

Sep. 17, 2014 Rise Set
Actual Time 6:56 AM MDT 7:17 PM MDT
Civil Twilight 6:29 AM MDT 7:44 PM MDT
Nautical Twilight 5:57 AM MDT 8:15 PM MDT
Astronomical Twilight 5:25 AM MDT 8:47 PM MDT
Moon 1:00 AM MDT 3:27 PM MDT
Length of Visible Light 13h 15m
Length of Day
12h 21m
Tomorrow will be 2m 30s shorter.
Last Quarter, 38% of the Moon is Illuminated
Today
Last Quarter
Sep 24
New
Oct 1
First Quarter
Oct 8
Full
Oct 15
Last Quarter

Today's Extremes

State Highs State Lows

Community

WunderPhotos

Upload Photos

1,753,990 photos uploaded!

Nearby

Snow Depth

Station Depth Elevation
Whiskey Creek 0 in 10220 ft
Columbus Basin 0 in 10785 ft
University Camp 0 in 10300 ft
Bison Lake 0 in 10880 ft
Vail Mountain 87 in 10300 ft

Earthquake Activity

City Distance Mag. Time & Date
No recent earthquake activity has been reported nearby.
Minimum magnitude displayed is 2.5.

Coastal Water Temperatures

Place Temperature
No Stations Reporting

Nearby Weather Stations